createdAt,value
2023-04-30T00:00:11.989Z,100363.81
2023-04-30T00:05:38.647Z,100363.64
2023-04-30T00:10:44.373Z,100366.85
2023-04-30T00:15:49.986Z,100367.42
2023-04-30T00:20:55.628Z,100367.53
2023-04-30T00:26:01.932Z,100370.69
2023-04-30T00:31:09.347Z,100368.70
2023-04-30T00:36:14.890Z,100373.23
2023-04-30T00:41:22.879Z,100377.76
2023-04-30T00:46:29.144Z,100378.43
2023-04-30T00:51:35.725Z,100381.22
2023-04-30T00:56:41.494Z,100382.13
2023-04-30T01:01:47.283Z,100380.34
2023-04-30T01:06:53.194Z,100382.16
2023-04-30T01:12:09.397Z,100384.37
2023-04-30T01:17:23.634Z,100384.80
2023-04-30T01:22:43.685Z,100385.42
2023-04-30T01:28:05.719Z,100383.80
2023-04-30T01:33:11.833Z,100386.77
2023-04-30T01:38:31.750Z,100388.44
2023-04-30T01:43:46.254Z,100393.27
2023-04-30T01:49:11.113Z,100399.11
2023-04-30T01:54:27.152Z,100399.41
2023-04-30T01:59:35.565Z,100401.55
2023-04-30T02:04:41.269Z,100407.75
2023-04-30T02:09:46.767Z,100407.20
2023-04-30T02:14:52.635Z,100408.36
2023-04-30T02:19:58.298Z,100410.55
2023-04-30T02:25:04.802Z,100413.33
2023-04-30T02:30:11.133Z,100414.28
2023-04-30T02:35:16.856Z,100419.96
2023-04-30T02:40:22.384Z,100423.15
2023-04-30T02:45:28.178Z,100430.21
2023-04-30T02:50:34.243Z,100438.23
2023-04-30T02:55:39.576Z,100439.30
2023-04-30T03:00:45.057Z,100449.74
2023-04-30T03:05:50.557Z,100459.47
2023-04-30T03:10:56.276Z,100467.33
2023-04-30T03:16:04.665Z,100471.84
2023-04-30T03:21:10.284Z,100476.91
2023-04-30T03:26:15.734Z,100480.55
2023-04-30T03:31:21.371Z,100486.27
2023-04-30T03:36:27.505Z,100496.68
2023-04-30T03:41:33.424Z,100508.66
2023-04-30T03:46:43.771Z,100520.06
2023-04-30T03:51:49.712Z,100522.61
2023-04-30T03:56:56.125Z,100531.58
2023-04-30T04:02:03.500Z,100538.81
2023-04-30T04:07:11.383Z,100550.81
2023-04-30T04:12:16.763Z,100561.96
2023-04-30T04:17:22.386Z,100569.17
2023-04-30T04:22:27.951Z,100575.15
2023-04-30T04:27:33.810Z,100585.84
2023-04-30T04:32:49.633Z,100590.20
2023-04-30T04:37:55.582Z,100604.20
2023-04-30T04:43:03.034Z,100615.84
2023-04-30T04:48:08.926Z,100624.77
2023-04-30T04:53:14.352Z,100632.95
2023-04-30T04:58:19.724Z,100635.13
2023-04-30T05:03:25.554Z,100644.81
2023-04-30T05:08:31.377Z,100652.60
2023-04-30T05:13:36.989Z,100661.08
2023-04-30T05:18:42.402Z,100670.22
2023-04-30T05:23:48.407Z,100677.42
2023-04-30T05:28:53.755Z,100684.85
2023-04-30T05:33:59.490Z,100694.85
2023-04-30T05:39:05.389Z,100697.48
2023-04-30T05:44:11.158Z,100703.04
2023-04-30T05:49:16.587Z,100699.01
2023-04-30T05:54:22.822Z,100710.67
2023-04-30T05:59:28.606Z,100715.69
2023-04-30T06:04:34.364Z,100713.45
2023-04-30T06:09:40.030Z,100720.86
2023-04-30T06:14:46.168Z,100726.80
2023-04-30T06:19:52.330Z,100733.62
2023-04-30T06:24:58.518Z,100736.10
2023-04-30T06:30:04.649Z,100736.08
2023-04-30T06:35:11.082Z,100741.16
2023-04-30T06:40:16.575Z,100738.83
2023-04-30T06:45:22.007Z,100731.80
2023-04-30T06:50:27.573Z,100725.67
2023-04-30T06:55:33.307Z,100723.13
2023-04-30T07:00:38.796Z,100725.48
2023-04-30T07:05:44.716Z,100727.11
2023-04-30T07:10:50.730Z,100734.27
2023-04-30T07:15:56.581Z,100737.44
2023-04-30T07:21:02.421Z,100746.64
2023-04-30T07:26:08.115Z,100755.19
2023-04-30T07:31:15.919Z,100762.33
2023-04-30T07:36:21.511Z,100754.73
2023-04-30T07:41:27.357Z,100757.16
2023-04-30T07:46:33.321Z,100766.01
2023-04-30T07:51:39.561Z,100768.54
2023-04-30T07:56:45.119Z,100765.85
2023-04-30T08:01:50.578Z,100764.88
2023-04-30T08:06:56.014Z,100770.41
2023-04-30T08:12:04.863Z,100771.58
2023-04-30T08:17:10.417Z,100775.19
2023-04-30T08:22:16.419Z,100783.80
2023-04-30T08:27:22.105Z,100790.27
2023-04-30T08:32:28.211Z,100789.09
2023-04-30T08:37:34.623Z,100786.46
2023-04-30T08:42:46.177Z,100799.42
2023-04-30T08:47:52.135Z,100803.09
2023-04-30T08:52:58.753Z,100805.36
2023-04-30T08:58:05.938Z,100810.70
2023-04-30T09:03:11.613Z,100814.95
2023-04-30T09:08:40.055Z,100818.62
2023-04-30T09:13:44.076Z,100829.95
2023-04-30T09:18:49.615Z,100832.17
2023-04-30T09:23:58.690Z,100830.69
2023-04-30T09:29:08.669Z,100835.25
2023-04-30T09:34:15.234Z,100841.55
2023-04-30T09:39:21.023Z,100835.70
2023-04-30T09:44:32.690Z,100844.42
2023-04-30T09:49:40.844Z,100844.20
2023-04-30T09:54:47.767Z,100848.52
2023-04-30T09:59:54.222Z,100844.67
2023-04-30T10:05:01.392Z,100848.34
2023-04-30T10:10:10.722Z,100842.79
2023-04-30T10:15:19.027Z,100844.65
2023-04-30T10:20:26.750Z,100845.28
2023-04-30T10:25:33.976Z,100845.38
2023-04-30T10:30:41.303Z,100848.17
2023-04-30T10:35:51.103Z,100848.27
2023-04-30T10:40:58.826Z,100852.45
2023-04-30T10:46:05.129Z,100851.79
2023-04-30T10:51:10.957Z,100852.38
2023-04-30T10:56:31.387Z,100844.48
2023-04-30T11:01:57.325Z,100842.20
2023-04-30T11:07:10.078Z,100849.19
2023-04-30T11:12:20.880Z,100851.74
2023-04-30T11:17:28.956Z,100853.98
2023-04-30T11:22:38.207Z,100850.10
2023-04-30T11:27:45.327Z,100860.13
2023-04-30T11:32:51.979Z,100856.54
2023-04-30T11:38:00.773Z,100855.30
2023-04-30T11:43:06.910Z,100858.15
2023-04-30T11:48:14.776Z,100865.39
2023-04-30T11:53:26.827Z,100871.90
2023-04-30T11:58:38.710Z,100876.39
2023-04-30T12:03:46.408Z,100877.28
2023-04-30T12:08:55.099Z,100876.23
2023-04-30T12:14:05.226Z,100879.19
2023-04-30T12:19:11.459Z,100876.40
2023-04-30T12:24:18.847Z,100880.94
2023-04-30T12:29:25.834Z,100886.06
2023-04-30T12:34:33.921Z,100882.54
2023-04-30T12:39:39.868Z,100877.96
2023-04-30T12:44:45.706Z,100880.73
2023-04-30T12:49:51.730Z,100880.11
2023-04-30T12:54:57.388Z,100875.30
2023-04-30T13:00:05.860Z,100880.89
2023-04-30T13:05:13.660Z,100880.86
2023-04-30T13:10:20.181Z,100876.57
2023-04-30T13:15:26.048Z,100871.14
2023-04-30T13:20:31.574Z,100862.86
2023-04-30T13:25:39.268Z,100869.20
2023-04-30T13:30:45.261Z,100875.23
2023-04-30T13:35:50.857Z,100875.68
2023-04-30T13:40:56.677Z,100879.41
2023-04-30T13:46:03.293Z,100879.34
2023-04-30T13:51:08.873Z,100881.81
2023-04-30T13:56:15.562Z,100874.41
2023-04-30T14:01:21.432Z,100873.28
2023-04-30T14:06:29.506Z,100874.04
2023-04-30T14:11:35.401Z,100875.28
2023-04-30T14:16:41.110Z,100874.34
2023-04-30T14:21:46.776Z,100876.80
2023-04-30T14:26:52.397Z,100879.61
2023-04-30T14:31:58.184Z,100884.40
2023-04-30T14:37:05.212Z,100878.30
2023-04-30T14:42:11.095Z,100878.93
2023-04-30T14:47:17.294Z,100884.66
2023-04-30T14:52:23.220Z,100884.70
2023-04-30T14:57:28.814Z,100886.36
2023-04-30T15:02:34.510Z,100885.96
2023-04-30T15:07:40.623Z,100883.70
2023-04-30T15:12:46.394Z,100889.60
2023-04-30T15:17:52.894Z,100893.78
2023-04-30T15:22:58.505Z,100888.38
2023-04-30T15:28:05.006Z,100898.38
2023-04-30T15:33:10.592Z,100899.41
2023-04-30T15:38:16.523Z,100896.80
2023-04-30T15:43:23.536Z,100896.62
2023-04-30T15:48:29.102Z,100902.54
2023-04-30T15:53:34.733Z,100906.67
2023-04-30T15:58:40.676Z,100910.05
2023-04-30T16:03:46.593Z,100908.42
2023-04-30T16:08:52.557Z,100907.84
2023-04-30T16:13:58.037Z,100907.11
2023-04-30T16:19:03.886Z,100908.70
2023-04-30T16:24:10.501Z,100912.17
2023-04-30T16:29:16.150Z,100909.43
2023-04-30T16:34:22.253Z,100909.58
2023-04-30T16:39:27.782Z,100916.00
2023-04-30T16:44:33.527Z,100921.10
2023-04-30T16:49:39.989Z,100927.02
2023-04-30T16:54:45.987Z,100929.20
2023-04-30T16:59:51.539Z,100933.47
2023-04-30T17:04:57.651Z,100934.04
2023-04-30T17:10:05.468Z,100934.13
2023-04-30T17:15:12.028Z,100940.52
2023-04-30T17:20:17.806Z,100946.39
2023-04-30T17:25:23.980Z,100951.73
2023-04-30T17:30:29.679Z,100961.11
2023-04-30T17:35:35.292Z,100965.77
2023-04-30T17:40:40.780Z,100969.66
2023-04-30T17:45:46.503Z,100972.35
2023-04-30T17:50:52.004Z,100976.33
2023-04-30T17:55:59.899Z,100979.09
2023-04-30T18:01:06.258Z,100988.59
2023-04-30T18:06:11.758Z,100992.20
2023-04-30T18:11:17.474Z,100996.83
2023-04-30T18:16:22.916Z,101000.30
2023-04-30T18:21:28.408Z,101004.52
2023-04-30T18:26:33.818Z,101012.33
2023-04-30T18:31:39.725Z,101012.36
2023-04-30T18:36:45.266Z,101016.67
2023-04-30T18:41:51.020Z,101023.54
2023-04-30T18:46:57.321Z,101026.19
2023-04-30T18:52:02.860Z,101032.16
2023-04-30T18:57:12.397Z,101033.06
2023-04-30T19:02:18.138Z,101035.83
2023-04-30T19:07:24.766Z,101041.34
2023-04-30T19:12:30.723Z,101042.84
2023-04-30T19:17:36.501Z,101051.45
2023-04-30T19:22:42.649Z,101053.02
2023-04-30T19:27:48.602Z,101057.80
2023-04-30T19:32:54.152Z,101059.46
2023-04-30T19:38:00.100Z,101060.60
2023-04-30T19:43:07.634Z,101066.56
2023-04-30T19:48:23.223Z,101064.00
2023-04-30T19:53:29.139Z,101071.13
2023-04-30T19:58:34.856Z,101074.60
2023-04-30T20:03:49.851Z,101072.19
2023-04-30T20:09:18.076Z,101070.98
2023-04-30T20:14:25.134Z,101071.66
2023-04-30T20:19:32.183Z,101073.54
2023-04-30T20:24:37.753Z,101074.73
2023-04-30T20:29:43.407Z,101078.63
2023-04-30T20:34:49.276Z,101077.88
2023-04-30T20:39:54.863Z,101084.20
2023-04-30T20:45:01.958Z,101091.88
2023-04-30T20:50:15.362Z,101095.30
2023-04-30T20:55:21.446Z,101091.77
2023-04-30T21:00:27.773Z,101095.84
2023-04-30T21:05:34.306Z,101100.11
2023-04-30T21:10:41.120Z,101106.24
2023-04-30T21:15:48.605Z,101110.80
2023-04-30T21:20:56.389Z,101122.83
2023-04-30T21:26:02.646Z,101129.70
2023-04-30T21:31:09.283Z,101133.57
2023-04-30T21:36:16.502Z,101140.69
2023-04-30T21:41:24.663Z,101144.48
2023-04-30T21:46:30.219Z,101152.92
2023-04-30T21:51:37.224Z,101158.62
2023-04-30T21:56:42.713Z,101161.75
2023-04-30T22:01:48.404Z,101165.94
2023-04-30T22:06:54.380Z,101171.79
2023-04-30T22:12:00.235Z,101174.62
2023-04-30T22:17:06.179Z,101182.42
2023-04-30T22:22:11.996Z,101190.01
2023-04-30T22:27:17.903Z,101199.45
2023-04-30T22:32:23.604Z,101203.63
2023-04-30T22:37:29.894Z,101205.92
2023-04-30T22:42:35.895Z,101210.54
2023-04-30T22:47:42.187Z,101216.52
2023-04-30T22:52:48.553Z,101224.21
2023-04-30T22:57:54.226Z,101227.46
2023-04-30T23:03:00.281Z,101230.63
2023-04-30T23:08:06.261Z,101228.91
2023-04-30T23:13:11.827Z,101234.61
2023-04-30T23:18:17.844Z,101240.10
2023-04-30T23:23:23.494Z,101241.39
2023-04-30T23:28:29.149Z,101235.60
2023-04-30T23:33:34.891Z,101235.30
2023-04-30T23:38:40.742Z,101239.14
2023-04-30T23:43:46.620Z,101239.27
2023-04-30T23:48:52.182Z,101244.20
2023-04-30T23:53:57.645Z,101246.44
2023-04-30T23:59:03.418Z,101250.00
